sensor_id;sensor_type;location;lat;lon;timestamp;pressure;altitude;pressure_sealevel;temperature;humidity
59650;BME280;46162;57.568;25.814;2023-02-08T00:01:49;103199.72;;;-3.04;100.00
59650;BME280;46162;57.568;25.814;2023-02-08T00:04:17;103190.00;;;-3.05;100.00
59650;BME280;46162;57.568;25.814;2023-02-08T00:06:46;103187.38;;;-3.01;100.00
59650;BME280;46162;57.568;25.814;2023-02-08T00:09:14;103189.13;;;-2.99;100.00
59650;BME280;46162;57.568;25.814;2023-02-08T00:11:44;103197.03;;;-2.97;100.00
59650;BME280;46162;57.568;25.814;2023-02-08T00:14:13;103183.81;;;-2.96;100.00
59650;BME280;46162;57.568;25.814;2023-02-08T00:16:42;103183.81;;;-2.97;100.00
59650;BME280;46162;57.568;25.814;2023-02-08T00:19:10;103182.06;;;-2.95;100.00
59650;BME280;46162;57.568;25.814;2023-02-08T00:21:38;103185.56;;;-2.92;100.00
59650;BME280;46162;57.568;25.814;2023-02-08T00:24:07;103189.09;;;-2.91;100.00
59650;BME280;46162;57.568;25.814;2023-02-08T00:26:36;103193.50;;;-2.89;100.00
59650;BME280;46162;57.568;25.814;2023-02-08T00:29:06;103188.19;;;-2.86;100.00
59650;BME280;46162;57.568;25.814;2023-02-08T00:31:34;103183.78;;;-2.85;100.00
59650;BME280;46162;57.568;25.814;2023-02-08T00:34:03;103182.03;;;-2.86;100.00
59650;BME280;46162;57.568;25.814;2023-02-08T00:36:32;103180.28;;;-2.84;100.00
59650;BME280;46162;57.568;25.814;2023-02-08T00:39:01;103180.25;;;-2.83;100.00
59650;BME280;46162;57.568;25.814;2023-02-08T00:41:29;103182.91;;;-2.83;100.00
59650;BME280;46162;57.568;25.814;2023-02-08T00:43:58;103181.16;;;-2.84;100.00
59650;BME280;46162;57.568;25.814;2023-02-08T00:46:29;103180.25;;;-2.81;100.00
59650;BME280;46162;57.568;25.814;2023-02-08T00:48:57;103169.69;;;-2.81;100.00
59650;BME280;46162;57.568;25.814;2023-02-08T00:51:26;103170.56;;;-2.81;100.00
59650;BME280;46162;57.568;25.814;2023-02-08T00:53:54;103163.53;;;-2.82;100.00
59650;BME280;46162;57.568;25.814;2023-02-08T00:56:23;103162.59;;;-2.77;100.00
59650;BME280;46162;57.568;25.814;2023-02-08T00:58:51;103165.25;;;-2.77;100.00
59650;BME280;46162;57.568;25.814;2023-02-08T01:01:20;103170.53;;;-2.77;100.00
59650;BME280;46162;57.568;25.814;2023-02-08T01:03:52;103177.59;;;-2.76;100.00
59650;BME280;46162;57.568;25.814;2023-02-08T01:06:21;103180.25;;;-2.76;100.00
59650;BME280;46162;57.568;25.814;2023-02-08T01:08:49;103169.69;;;-2.76;100.00
59650;BME280;46162;57.568;25.814;2023-02-08T01:11:20;103172.31;;;-2.76;100.00
59650;BME280;46162;57.568;25.814;2023-02-08T01:13:51;103165.28;;;-2.79;100.00
59650;BME280;46162;57.568;25.814;2023-02-08T01:16:22;103174.09;;;-2.78;100.00
59650;BME280;46162;57.568;25.814;2023-02-08T01:18:54;103174.06;;;-2.80;100.00
59650;BME280;46162;57.568;25.814;2023-02-08T01:21:25;103178.50;;;-2.81;100.00
59650;BME280;46162;57.568;25.814;2023-02-08T01:23:54;103179.38;;;-2.82;100.00
59650;BME280;46162;57.568;25.814;2023-02-08T01:26:24;103181.13;;;-2.82;100.00
59650;BME280;46162;57.568;25.814;2023-02-08T01:28:54;103174.97;;;-2.83;100.00
59650;BME280;46162;57.568;25.814;2023-02-08T01:31:24;103165.28;;;-2.84;100.00
59650;BME280;46162;57.568;25.814;2023-02-08T01:33:56;103170.56;;;-2.84;100.00
59650;BME280;46162;57.568;25.814;2023-02-08T01:36:26;103154.72;;;-2.84;100.00
59650;BME280;46162;57.568;25.814;2023-02-08T01:38:55;103158.22;;;-2.85;100.00
59650;BME280;46162;57.568;25.814;2023-02-08T01:41:26;103152.06;;;-2.85;100.00
59650;BME280;46162;57.568;25.814;2023-02-08T01:44:07;103151.19;;;-2.87;100.00
59650;BME280;46162;57.568;25.814;2023-02-08T01:46:36;103145.03;;;-2.88;100.00
59650;BME280;46162;57.568;25.814;2023-02-08T01:49:10;103140.63;;;-2.86;100.00
59650;BME280;46162;57.568;25.814;2023-02-08T01:51:43;103138.88;;;-2.87;100.00
59650;BME280;46162;57.568;25.814;2023-02-08T01:54:15;103143.25;;;-2.87;100.00
59650;BME280;46162;57.568;25.814;2023-02-08T01:56:46;103144.16;;;-2.87;100.00
59650;BME280;46162;57.568;25.814;2023-02-08T01:59:18;103145.03;;;-2.86;100.00
59650;BME280;46162;57.568;25.814;2023-02-08T02:01:50;103150.31;;;-2.86;100.00
59650;BME280;46162;57.568;25.814;2023-02-08T02:04:21;103151.19;;;-2.86;100.00
59650;BME280;46162;57.568;25.814;2023-02-08T02:06:54;103141.50;;;-2.85;100.00
59650;BME280;46162;57.568;25.814;2023-02-08T02:09:27;103158.22;;;-2.85;100.00
59650;BME280;46162;57.568;25.814;2023-02-08T02:11:59;103151.19;;;-2.86;100.00
59650;BME280;46162;57.568;25.814;2023-02-08T02:14:28;103156.50;;;-2.84;100.00
59650;BME280;46162;57.568;25.814;2023-02-08T02:16:58;103151.19;;;-2.83;100.00
59650;BME280;46162;57.568;25.814;2023-02-08T02:19:34;103151.19;;;-2.83;100.00
59650;BME280;46162;57.568;25.814;2023-02-08T02:22:16;103158.25;;;-2.82;100.00
59650;BME280;46162;57.568;25.814;2023-02-08T02:25:18;103151.19;;;-2.83;100.00
59650;BME280;46162;57.568;25.814;2023-02-08T02:28:17;103152.94;;;-2.82;100.00
59650;BME280;46162;57.568;25.814;2023-02-08T02:34:01;103148.53;;;-2.83;100.00
59650;BME280;46162;57.568;25.814;2023-02-08T02:36:36;103141.47;;;-2.82;100.00
59650;BME280;46162;57.568;25.814;2023-02-08T02:39:19;103152.94;;;-2.82;100.00
59650;BME280;46162;57.568;25.814;2023-02-08T02:41:55;103144.13;;;-2.82;100.00
59650;BME280;46162;57.568;25.814;2023-02-08T02:44:53;103154.69;;;-2.81;100.00
59650;BME280;46162;57.568;25.814;2023-02-08T02:47:34;103148.53;;;-2.81;100.00
59650;BME280;46162;57.568;25.814;2023-02-08T02:50:12;103148.53;;;-2.83;100.00
59650;BME280;46162;57.568;25.814;2023-02-08T02:52:47;103147.66;;;-2.83;100.00
59650;BME280;46162;57.568;25.814;2023-02-08T02:55:21;103145.88;;;-2.83;100.00
59650;BME280;46162;57.568;25.814;2023-02-08T02:57:54;103155.56;;;-2.80;100.00
59650;BME280;46162;57.568;25.814;2023-02-08T03:00:28;103159.13;;;-2.81;100.00
59650;BME280;46162;57.568;25.814;2023-02-08T03:02:58;103152.94;;;-2.82;100.00
59650;BME280;46162;57.568;25.814;2023-02-08T03:05:29;103151.19;;;-2.81;100.00
59650;BME280;46162;57.568;25.814;2023-02-08T03:08:09;103146.75;;;-2.81;100.00
59650;BME280;46162;57.568;25.814;2023-02-08T03:11:06;103142.34;;;-2.78;100.00
59650;BME280;46162;57.568;25.814;2023-02-08T03:13:52;103132.69;;;-2.81;100.00
59650;BME280;46162;57.568;25.814;2023-02-08T03:16:30;103130.91;;;-2.81;100.00
59650;BME280;46162;57.568;25.814;2023-02-08T03:19:06;103127.38;;;-2.78;100.00
59650;BME280;46162;57.568;25.814;2023-02-08T03:21:40;103124.72;;;-2.76;100.00
59650;BME280;46162;57.568;25.814;2023-02-08T03:24:23;103119.44;;;-2.76;100.00
59650;BME280;46162;57.568;25.814;2023-02-08T03:26:57;103112.38;;;-2.77;100.00
59650;BME280;46162;57.568;25.814;2023-02-08T03:29:43;103112.38;;;-2.74;100.00
59650;BME280;46162;57.568;25.814;2023-02-08T03:32:18;103109.75;;;-2.74;100.00
59650;BME280;46162;57.568;25.814;2023-02-08T03:34:54;103110.59;;;-2.75;100.00
59650;BME280;46162;57.568;25.814;2023-02-08T03:37:29;103107.94;;;-2.72;100.00
59650;BME280;46162;57.568;25.814;2023-02-08T03:40:03;103112.34;;;-2.70;100.00
59650;BME280;46162;57.568;25.814;2023-02-08T03:42:34;103117.63;;;-2.68;100.00
59650;BME280;46162;57.568;25.814;2023-02-08T03:45:08;103113.22;;;-2.68;100.00
59650;BME280;46162;57.568;25.814;2023-02-08T03:47:39;103111.44;;;-2.67;100.00
59650;BME280;46162;57.568;25.814;2023-02-08T03:50:11;103106.16;;;-2.67;100.00
59650;BME280;46162;57.568;25.814;2023-02-08T03:52:45;103105.28;;;-2.66;100.00
59650;BME280;46162;57.568;25.814;2023-02-08T03:55:17;103109.66;;;-2.65;100.00
59650;BME280;46162;57.568;25.814;2023-02-08T03:57:50;103099.97;;;-2.63;100.00
59650;BME280;46162;57.568;25.814;2023-02-08T04:00:21;103106.13;;;-2.61;100.00
59650;BME280;46162;57.568;25.814;2023-02-08T04:03:00;103107.00;;;-2.59;100.00
59650;BME280;46162;57.568;25.814;2023-02-08T04:05:33;103105.25;;;-2.57;100.00
59650;BME280;46162;57.568;25.814;2023-02-08T04:08:06;103100.81;;;-2.56;100.00
59650;BME280;46162;57.568;25.814;2023-02-08T04:10:35;103109.63;;;-2.54;100.00
59650;BME280;46162;57.568;25.814;2023-02-08T04:13:08;103112.22;;;-2.50;100.00
59650;BME280;46162;57.568;25.814;2023-02-08T04:15:37;103117.53;;;-2.50;100.00
59650;BME280;46162;57.568;25.814;2023-02-08T04:18:06;103122.81;;;-2.50;100.00
59650;BME280;46162;57.568;25.814;2023-02-08T04:20:35;103116.66;;;-2.47;100.00
59650;BME280;46162;57.568;25.814;2023-02-08T04:23:08;103113.13;;;-2.45;100.00
59650;BME280;46162;57.568;25.814;2023-02-08T04:25:41;103117.50;;;-2.44;100.00
59650;BME280;46162;57.568;25.814;2023-02-08T04:28:10;103113.09;;;-2.43;100.00
59650;BME280;46162;57.568;25.814;2023-02-08T04:30:39;103120.13;;;-2.41;100.00
59650;BME280;46162;57.568;25.814;2023-02-08T04:33:08;103120.13;;;-2.39;100.00
59650;BME280;46162;57.568;25.814;2023-02-08T04:35:39;103123.66;;;-2.39;100.00
59650;BME280;46162;57.568;25.814;2023-02-08T04:38:09;103116.56;;;-2.35;100.00
59650;BME280;46162;57.568;25.814;2023-02-08T04:40:38;103123.63;;;-2.34;100.00
59650;BME280;46162;57.568;25.814;2023-02-08T04:43:08;103120.06;;;-2.33;100.00
59650;BME280;46162;57.568;25.814;2023-02-08T04:45:37;103123.63;;;-2.34;100.00
59650;BME280;46162;57.568;25.814;2023-02-08T04:48:06;103122.72;;;-2.30;100.00
59650;BME280;46162;57.568;25.814;2023-02-08T04:50:38;103134.19;;;-2.29;100.00
59650;BME280;46162;57.568;25.814;2023-02-08T04:53:10;103127.13;;;-2.27;100.00
59650;BME280;46162;57.568;25.814;2023-02-08T04:55:39;103122.66;;;-2.25;100.00
59650;BME280;46162;57.568;25.814;2023-02-08T04:58:08;103112.09;;;-2.25;100.00
59650;BME280;46162;57.568;25.814;2023-02-08T05:00:37;103118.25;;;-2.22;100.00
59650;BME280;46162;57.568;25.814;2023-02-08T05:03:06;103116.47;;;-2.23;100.00
59650;BME280;46162;57.568;25.814;2023-02-08T05:05:35;103112.97;;;-2.22;100.00
59650;BME280;46162;57.568;25.814;2023-02-08T05:08:07;103122.66;;;-2.19;100.00
59650;BME280;46162;57.568;25.814;2023-02-08T05:10:43;103110.28;;;-2.17;100.00
59650;BME280;46162;57.568;25.814;2023-02-08T05:13:15;103120.88;;;-2.17;100.00
59650;BME280;46162;57.568;25.814;2023-02-08T05:15:44;103115.56;;;-2.16;100.00
59650;BME280;46162;57.568;25.814;2023-02-08T05:18:16;103106.75;;;-2.14;100.00
59650;BME280;46162;57.568;25.814;2023-02-08T05:20:53;103104.97;;;-2.14;100.00
59650;BME280;46162;57.568;25.814;2023-02-08T05:23:22;103108.47;;;-2.12;100.00
59650;BME280;46162;57.568;25.814;2023-02-08T05:25:52;103107.59;;;-2.09;100.00
59650;BME280;46162;57.568;25.814;2023-02-08T05:28:22;103108.44;;;-2.09;100.00
59650;BME280;46162;57.568;25.814;2023-02-08T05:30:54;103107.56;;;-2.08;100.00
59650;BME280;46162;57.568;25.814;2023-02-08T05:33:25;103099.59;;;-2.08;100.00
59650;BME280;46162;57.568;25.814;2023-02-08T05:35:54;103098.75;;;-2.07;100.00
59650;BME280;46162;57.568;25.814;2023-02-08T05:38:23;103099.63;;;-2.05;100.00
59650;BME280;46162;57.568;25.814;2023-02-08T05:40:57;103107.53;;;-2.03;100.00
59650;BME280;46162;57.568;25.814;2023-02-08T05:43:26;103104.00;;;-2.02;100.00
59650;BME280;46162;57.568;25.814;2023-02-08T05:45:58;103105.72;;;-1.98;100.00
59650;BME280;46162;57.568;25.814;2023-02-08T05:48:29;103105.72;;;-1.98;100.00
59650;BME280;46162;57.568;25.814;2023-02-08T05:51:01;103104.81;;;-1.94;100.00
59650;BME280;46162;57.568;25.814;2023-02-08T05:53:30;103102.16;;;-1.94;100.00
59650;BME280;46162;57.568;25.814;2023-02-08T05:56:01;103103.03;;;-1.92;100.00
59650;BME280;46162;57.568;25.814;2023-02-08T05:58:30;103104.78;;;-1.91;100.00
59650;BME280;46162;57.568;25.814;2023-02-08T06:00:59;103105.66;;;-1.89;100.00
59650;BME280;46162;57.568;25.814;2023-02-08T06:03:28;103105.66;;;-1.87;100.00
59650;BME280;46162;57.568;25.814;2023-02-08T06:05:59;103100.31;;;-1.86;100.00
59650;BME280;46162;57.568;25.814;2023-02-08T06:08:30;103109.16;;;-1.85;100.00
59650;BME280;46162;57.568;25.814;2023-02-08T06:11:04;103114.41;;;-1.81;100.00
59650;BME280;46162;57.568;25.814;2023-02-08T06:13:36;103125.00;;;-1.78;100.00
59650;BME280;46162;57.568;25.814;2023-02-08T06:16:05;103138.19;;;-1.76;100.00
59650;BME280;46162;57.568;25.814;2023-02-08T06:18:34;103136.44;;;-1.74;100.00
59650;BME280;46162;57.568;25.814;2023-02-08T06:21:03;103140.84;;;-1.73;100.00
59650;BME280;46162;57.568;25.814;2023-02-08T06:23:35;103148.75;;;-1.70;100.00
59650;BME280;46162;57.568;25.814;2023-02-08T06:26:05;103150.53;;;-1.72;100.00
59650;BME280;46162;57.568;25.814;2023-02-08T06:28:34;103160.22;;;-1.68;100.00
59650;BME280;46162;57.568;25.814;2023-02-08T06:31:03;103150.47;;;-1.66;100.00
59650;BME280;46162;57.568;25.814;2023-02-08T06:33:32;103153.13;;;-1.64;100.00
59650;BME280;46162;57.568;25.814;2023-02-08T06:36:05;103145.16;;;-1.66;100.00
59650;BME280;46162;57.568;25.814;2023-02-08T06:38:34;103149.56;;;-1.63;100.00
59650;BME280;46162;57.568;25.814;2023-02-08T06:41:03;103154.88;;;-1.63;100.00
59650;BME280;46162;57.568;25.814;2023-02-08T06:43:35;103163.72;;;-1.63;100.00
59650;BME280;46162;57.568;25.814;2023-02-08T06:46:04;103156.63;;;-1.62;100.00
59650;BME280;46162;57.568;25.814;2023-02-08T06:48:35;103167.25;;;-1.62;100.00
59650;BME280;46162;57.568;25.814;2023-02-08T06:51:04;103164.59;;;-1.64;100.00
59650;BME280;46162;57.568;25.814;2023-02-08T06:53:32;103163.69;;;-1.61;100.00
59650;BME280;46162;57.568;25.814;2023-02-08T06:56:01;103177.81;;;-1.59;100.00
59650;BME280;46162;57.568;25.814;2023-02-08T06:58:29;103172.47;;;-1.56;100.00
59650;BME280;46162;57.568;25.814;2023-02-08T07:00:59;103179.53;;;-1.55;100.00
59650;BME280;46162;57.568;25.814;2023-02-08T07:03:28;103181.28;;;-1.54;100.00
59650;BME280;46162;57.568;25.814;2023-02-08T07:05:56;103186.59;;;-1.53;100.00
59650;BME280;46162;57.568;25.814;2023-02-08T07:08:31;103184.81;;;-1.50;100.00
59650;BME280;46162;57.568;25.814;2023-02-08T07:11:05;103188.28;;;-1.48;100.00
59650;BME280;46162;57.568;25.814;2023-02-08T07:13:34;103187.41;;;-1.47;100.00
59650;BME280;46162;57.568;25.814;2023-02-08T07:16:06;103190.94;;;-1.45;100.00
59650;BME280;46162;57.568;25.814;2023-02-08T07:18:35;103183.88;;;-1.46;100.00
59650;BME280;46162;57.568;25.814;2023-02-08T07:21:04;103194.47;;;-1.45;100.00
59650;BME280;46162;57.568;25.814;2023-02-08T07:23:33;103197.13;;;-1.45;100.00
59650;BME280;46162;57.568;25.814;2023-02-08T07:26:04;103197.13;;;-1.43;100.00
59650;BME280;46162;57.568;25.814;2023-02-08T07:28:33;103194.47;;;-1.43;100.00
59650;BME280;46162;57.568;25.814;2023-02-08T07:31:06;103190.88;;;-1.39;100.00
59650;BME280;46162;57.568;25.814;2023-02-08T07:33:35;103193.53;;;-1.39;100.00
59650;BME280;46162;57.568;25.814;2023-02-08T07:36:04;103182.91;;;-1.38;100.00
59650;BME280;46162;57.568;25.814;2023-02-08T07:38:34;103190.84;;;-1.36;100.00
59650;BME280;46162;57.568;25.814;2023-02-08T07:41:06;103197.91;;;-1.35;100.00
59650;BME280;46162;57.568;25.814;2023-02-08T07:43:36;103205.84;;;-1.34;100.00
59650;BME280;46162;57.568;25.814;2023-02-08T07:46:08;103190.84;;;-1.36;100.00
59650;BME280;46162;57.568;25.814;2023-02-08T07:48:37;103189.94;;;-1.34;100.00
59650;BME280;46162;57.568;25.814;2023-02-08T07:51:07;103183.75;;;-1.34;100.00
59650;BME280;46162;57.568;25.814;2023-02-08T07:53:36;103192.63;;;-1.35;100.00
59650;BME280;46162;57.568;25.814;2023-02-08T07:56:05;103182.88;;;-1.35;100.00
59650;BME280;46162;57.568;25.814;2023-02-08T07:58:36;103184.63;;;-1.34;100.00
59650;BME280;46162;57.568;25.814;2023-02-08T08:01:06;103184.63;;;-1.34;100.00
59650;BME280;46162;57.568;25.814;2023-02-08T08:03:49;103176.69;;;-1.32;100.00
59650;BME280;46162;57.568;25.814;2023-02-08T08:06:19;103182.84;;;-1.30;100.00
59650;BME280;46162;57.568;25.814;2023-02-08T08:08:49;103180.16;;;-1.27;100.00
59650;BME280;46162;57.568;25.814;2023-02-08T08:11:20;103180.19;;;-1.28;100.00
59650;BME280;46162;57.568;25.814;2023-02-08T08:13:49;103184.59;;;-1.26;100.00
59650;BME280;46162;57.568;25.814;2023-02-08T08:16:19;103190.72;;;-1.24;100.00
59650;BME280;46162;57.568;25.814;2023-02-08T08:18:48;103187.19;;;-1.23;100.00
59650;BME280;46162;57.568;25.814;2023-02-08T08:21:17;103198.69;;;-1.22;100.00
59650;BME280;46162;57.568;25.814;2023-02-08T08:23:46;103198.69;;;-1.21;100.00
59650;BME280;46162;57.568;25.814;2023-02-08T08:26:16;103208.38;;;-1.20;100.00
59650;BME280;46162;57.568;25.814;2023-02-08T08:28:45;103210.13;;;-1.19;100.00
59650;BME280;46162;57.568;25.814;2023-02-08T08:31:15;103205.72;;;-1.18;100.00
59650;BME280;46162;57.568;25.814;2023-02-08T08:33:46;103206.59;;;-1.18;100.00
59650;BME280;46162;57.568;25.814;2023-02-08T08:36:15;103200.38;;;-1.17;100.00
59650;BME280;46162;57.568;25.814;2023-02-08T08:38:43;103206.56;;;-1.15;100.00
59650;BME280;46162;57.568;25.814;2023-02-08T08:41:14;103203.91;;;-1.13;100.00
59650;BME280;46162;57.568;25.814;2023-02-08T08:43:44;103198.59;;;-1.13;100.00
59650;BME280;46162;57.568;25.814;2023-02-08T08:46:13;103203.88;;;-1.10;100.00
59650;BME280;46162;57.568;25.814;2023-02-08T08:48:43;103203.81;;;-1.07;100.00
59650;BME280;46162;57.568;25.814;2023-02-08T08:51:13;103198.53;;;-1.07;100.00
59650;BME280;46162;57.568;25.814;2023-02-08T08:53:42;103213.53;;;-1.03;100.00
59650;BME280;46162;57.568;25.814;2023-02-08T08:56:10;103208.22;;;-1.03;100.00
59650;BME280;46162;57.568;25.814;2023-02-08T08:58:39;103212.59;;;-1.02;100.00
59650;BME280;46162;57.568;25.814;2023-02-08T09:01:09;103205.53;;;-1.00;100.00
59650;BME280;46162;57.568;25.814;2023-02-08T09:03:39;103199.25;;;-0.94;100.00
59650;BME280;46162;57.568;25.814;2023-02-08T09:06:07;103203.66;;;-0.92;100.00
59650;BME280;46162;57.568;25.814;2023-02-08T09:08:38;103200.13;;;-0.91;100.00
59650;BME280;46162;57.568;25.814;2023-02-08T09:11:07;103190.34;;;-0.85;100.00
59650;BME280;46162;57.568;25.814;2023-02-08T09:13:37;103197.31;;;-0.74;100.00
59650;BME280;46162;57.568;25.814;2023-02-08T09:16:07;103197.16;;;-0.63;100.00
59650;BME280;46162;57.568;25.814;2023-02-08T09:18:37;103190.84;;;-0.51;100.00
59650;BME280;46162;57.568;25.814;2023-02-08T09:21:06;103196.09;;;-0.48;100.00
59650;BME280;46162;57.568;25.814;2023-02-08T09:23:35;103197.03;;;-0.52;100.00
59650;BME280;46162;57.568;25.814;2023-02-08T09:26:08;103189.16;;;-0.57;100.00
59650;BME280;46162;57.568;25.814;2023-02-08T09:28:38;103183.91;;;-0.63;100.00
59650;BME280;46162;57.568;25.814;2023-02-08T09:31:07;103183.09;;;-0.70;100.00
59650;BME280;46162;57.568;25.814;2023-02-08T09:33:35;103181.34;;;-0.71;100.00
59650;BME280;46162;57.568;25.814;2023-02-08T09:36:04;103187.56;;;-0.73;100.00
59650;BME280;46162;57.568;25.814;2023-02-08T09:38:35;103187.56;;;-0.75;100.00
59650;BME280;46162;57.568;25.814;2023-02-08T09:41:15;103188.47;;;-0.76;100.00
59650;BME280;46162;57.568;25.814;2023-02-08T09:43:51;103185.78;;;-0.73;100.00
59650;BME280;46162;57.568;25.814;2023-02-08T09:46:23;103185.78;;;-0.71;100.00
59650;BME280;46162;57.568;25.814;2023-02-08T09:48:56;103176.81;;;-0.61;100.00
59650;BME280;46162;57.568;25.814;2023-02-08T09:51:29;103181.91;;;-0.47;100.00
59650;BME280;46162;57.568;25.814;2023-02-08T09:54:03;103174.72;;;-0.37;100.00
59650;BME280;46162;57.568;25.814;2023-02-08T09:56:39;103167.56;;;-0.32;100.00
59650;BME280;46162;57.568;25.814;2023-02-08T09:59:12;103167.50;;;-0.26;100.00
59650;BME280;46162;57.568;25.814;2023-02-08T10:01:44;103170.97;;;-0.19;100.00
59650;BME280;46162;57.568;25.814;2023-02-08T10:04:18;103174.47;;;-0.19;100.00
59650;BME280;46162;57.568;25.814;2023-02-08T10:06:49;103169.97;;;-0.12;100.00
59650;BME280;46162;57.568;25.814;2023-02-08T10:09:20;103171.69;;;-0.10;100.00
59650;BME280;46162;57.568;25.814;2023-02-08T10:12:05;103179.69;;;-0.11;100.00
59650;BME280;46162;57.568;25.814;2023-02-08T10:14:45;103185.03;;;-0.14;100.00
59650;BME280;46162;57.568;25.814;2023-02-08T10:17:36;103183.38;;;-0.23;100.00
59650;BME280;46162;57.568;25.814;2023-02-08T10:20:17;103180.75;;;-0.25;100.00
59650;BME280;46162;57.568;25.814;2023-02-08T10:22:56;103182.56;;;-0.27;100.00
59650;BME280;46162;57.568;25.814;2023-02-08T10:25:38;103195.88;;;-0.33;100.00
59650;BME280;46162;57.568;25.814;2023-02-08T10:28:28;103192.38;;;-0.35;100.00
59650;BME280;46162;57.568;25.814;2023-02-08T10:31:01;103186.25;;;-0.37;100.00
59650;BME280;46162;57.568;25.814;2023-02-08T10:33:41;103180.94;;;-0.37;100.00
59650;BME280;46162;57.568;25.814;2023-02-08T10:36:17;103183.63;;;-0.41;100.00
59650;BME280;46162;57.568;25.814;2023-02-08T10:38:48;103181.00;;;-0.43;100.00
59650;BME280;46162;57.568;25.814;2023-02-08T10:41:22;103178.38;;;-0.46;100.00
59650;BME280;46162;57.568;25.814;2023-02-08T10:44:00;103175.78;;;-0.49;100.00
59650;BME280;46162;57.568;25.814;2023-02-08T10:46:34;103176.66;;;-0.49;100.00
59650;BME280;46162;57.568;25.814;2023-02-08T10:49:10;103174.00;;;-0.50;100.00
59650;BME280;46162;57.568;25.814;2023-02-08T10:51:44;103174.88;;;-0.50;100.00
59650;BME280;46162;57.568;25.814;2023-02-08T10:54:14;103164.25;;;-0.47;100.00
59650;BME280;46162;57.568;25.814;2023-02-08T10:56:45;103156.22;;;-0.44;100.00
59650;BME280;46162;57.568;25.814;2023-02-08T10:59:19;103157.84;;;-0.32;100.00
59650;BME280;46162;57.568;25.814;2023-02-08T11:01:49;103153.25;;;-0.19;100.00
59650;BME280;46162;57.568;25.814;2023-02-08T11:04:18;103156.69;;;-0.12;100.00
59650;BME280;46162;57.568;25.814;2023-02-08T11:06:48;103156.59;;;-0.08;100.00
59650;BME280;46162;57.568;25.814;2023-02-08T11:09:22;103161.94;;;-0.09;100.00
59650;BME280;46162;57.568;25.814;2023-02-08T11:11:52;103154.03;;;-0.12;100.00
59650;BME280;46162;57.568;25.814;2023-02-08T11:14:25;103157.53;;;-0.10;100.00
59650;BME280;46162;57.568;25.814;2023-02-08T11:17:24;103163.81;;;-0.17;100.00
59650;BME280;46162;57.568;25.814;2023-02-08T11:19:54;103168.19;;;-0.13;100.00
59650;BME280;46162;57.568;25.814;2023-02-08T11:22:26;103177.03;;;-0.13;100.00
59650;BME280;46162;57.568;25.814;2023-02-08T11:24:59;103180.59;;;-0.12;100.00
59650;BME280;46162;57.568;25.814;2023-02-08T11:27:32;103176.16;;;-0.12;100.00
59650;BME280;46162;57.568;25.814;2023-02-08T11:30:21;103178.75;;;-0.10;100.00
59650;BME280;46162;57.568;25.814;2023-02-08T11:33:13;103178.81;;;-0.13;100.00
59650;BME280;46162;57.568;25.814;2023-02-08T11:36:02;103167.31;;;-0.12;100.00
59650;BME280;46162;57.568;25.814;2023-02-08T11:38:34;103163.75;;;-0.13;100.00
59650;BME280;46162;57.568;25.814;2023-02-08T11:41:13;103161.03;;;-0.08;100.00
59650;BME280;46162;57.568;25.814;2023-02-08T11:43:59;103162.81;;;-0.07;100.00
59650;BME280;46162;57.568;25.814;2023-02-08T11:46:32;103144.25;;;-0.10;100.00
59650;BME280;46162;57.568;25.814;2023-02-08T11:49:02;103161.09;;;-0.11;100.00
59650;BME280;46162;57.568;25.814;2023-02-08T11:51:32;103160.25;;;-0.15;100.00
59650;BME280;46162;57.568;25.814;2023-02-08T11:54:03;103160.34;;;-0.19;100.00
59650;BME280;46162;57.568;25.814;2023-02-08T11:56:33;103159.53;;;-0.25;100.00
59650;BME280;46162;57.568;25.814;2023-02-08T11:59:08;103162.19;;;-0.28;100.00
59650;BME280;46162;57.568;25.814;2023-02-08T12:01:46;103159.66;;;-0.34;100.00
59650;BME280;46162;57.568;25.814;2023-02-08T12:04:15;103166.75;;;-0.34;100.00
59650;BME280;46162;57.568;25.814;2023-02-08T12:07:16;103164.09;;;-0.36;100.00
59650;BME280;46162;57.568;25.814;2023-02-08T12:10:18;103158.84;;;-0.40;100.00
59650;BME280;46162;57.568;25.814;2023-02-08T12:12:58;103158.84;;;-0.40;100.00
59650;BME280;46162;57.568;25.814;2023-02-08T12:15:38;103151.78;;;-0.41;100.00
59650;BME280;46162;57.568;25.814;2023-02-08T12:18:52;103161.53;;;-0.45;100.00
59650;BME280;46162;57.568;25.814;2023-02-08T12:21:27;103170.41;;;-0.46;100.00
59650;BME280;46162;57.568;25.814;2023-02-08T12:24:05;103157.16;;;-0.48;100.00
59650;BME280;46162;57.568;25.814;2023-02-08T12:27:01;103167.81;;;-0.49;100.00
59650;BME280;46162;57.568;25.814;2023-02-08T12:29:40;103173.13;;;-0.49;100.00
59650;BME280;46162;57.568;25.814;2023-02-08T12:32:30;103166.94;;;-0.51;100.00
59650;BME280;46162;57.568;25.814;2023-02-08T12:35:23;103164.28;;;-0.51;100.00
59650;BME280;46162;57.568;25.814;2023-02-08T12:38:18;103166.03;;;-0.50;100.00
59650;BME280;46162;57.568;25.814;2023-02-08T12:41:07;103162.50;;;-0.51;100.00
59650;BME280;46162;57.568;25.814;2023-02-08T12:43:44;103159.88;;;-0.52;100.00
59650;BME280;46162;57.568;25.814;2023-02-08T12:46:28;103150.16;;;-0.52;100.00
59650;BME280;46162;57.568;25.814;2023-02-08T12:49:22;103152.81;;;-0.53;100.00
59650;BME280;46162;57.568;25.814;2023-02-08T12:51:56;103154.59;;;-0.55;100.00
59650;BME280;46162;57.568;25.814;2023-02-08T12:54:32;103151.06;;;-0.54;100.00
59650;BME280;46162;57.568;25.814;2023-02-08T12:57:04;103158.19;;;-0.59;100.00
59650;BME280;46162;57.568;25.814;2023-02-08T12:59:35;103159.91;;;-0.55;100.00
59650;BME280;46162;57.568;25.814;2023-02-08T13:02:12;103160.84;;;-0.58;100.00
59650;BME280;46162;57.568;25.814;2023-02-08T13:04:46;103158.19;;;-0.59;100.00